Terminal Aerodrome Forecast
Issued by NWS

Home | Current Version | Previous Version | Text Only | Print | Product List | Glossary On
Versions: 1 2 3 4 5 6 7 8 9 10 11 12 13 14 15 16 17
000
FTUS43 KAPX 311740
TAFMBL
TAF
KMBL 311740Z 3118/0118 28012G21KT P6SM SCT070
     FM312100 29008G16KT P6SM FEW080
     FM010100 27004KT P6SM SCT070
     FM011500 29007KT P6SM SCT050
      AMD LTD TO CLD VIS AND WIND=

USA.gov is the U.S. government's official web portal to all federal, state and local government web resources and services.